Monaca, Pennsylvania
Current Conditions -  °F | °C
As of 6:47 AM on Thursday 23 Oct 2014 (Local Time) from KBVI Reporting Station
Overcast Overcast  
Wind Chill: 42°   Ceiling: 1600
Heat Index: 45°   Visibility: 10mi
Dew Point: 43°   Wind: 5mph
Humidity: 93%   Direction: 320°NW
Pressure: 30.15"   Gusts: NA
Location:  40.69°N, 80.28°W
Report Text: KBVI 231047Z 32004KT 10SM OVC016 07/06 A3015
Loading
Personal Weather Stations






























Interactive Weather Map
Tropical Storm Tracking
New forecast layout! Learn more

10-Day Weather Forecast

Advertisements
Track Severe Weather on mobile